< < Back
Terminal Aerodrome Forecast


Current Version              Previous Versions:   1  2  3  4  5  6  7  8  9  

Terminal Aerodrome Forecast

695
FTUS42 KMLB 231500 AAA
TAFMCO
TAF AMD
KMCO 231506Z 2315/2412 16013G20KT P6SM SCT015 BKN025 OVC250
      TEMPO 2315/2317 BKN015
     FM231800 16015G23KT P6SM VCSH BKN035 BKN060
     FM240200 18007KT P6SM SCT035 BKN200
     FM240600 19006KT 5SM BR OVC004=



Latest METAR

598
SAUS70 KWBC 232300 RRW
MTRMCO
METAR KMCO 232353Z 17004KT 10SM BKN038TCU BKN048 OVC250 24/23 A2992 RMK
AO2 RAE13 SLP129 TCU S P0002 60002 T02390233 10300 20239
51014 $


USA.gov is the U.S. government's official web portal to all federal, state and local government web resources and services.